Skip Navigation LinksHome page > Weather > Current weather Skip Navigation Links

Current Weather

Honolulu Intl, Honolulu

For information only: do not use for flight planning or navigation.
Latest weather
Observation time Friday, April 17, 2015 4:53 PM HST
Local time Friday, April 17, 2015 5:20 PM HST
Flight conditions Visual Meteorological Conditions
Winds
Wind direction Northeast (50°)
Wind speed 18 mph
Visibility 10 mi.
Sky condition
Ceiling unlimited
Cloud layer few clouds 3,200 ft.
Cloud layer scattered clouds 6,500 ft.
Temperature 81°F
Dewpoint 63°F
Altimeter 30.01 in.Hg
Pressure change last 3 hours0.00 in.Hg
Pressure falling, then rising
Derived measurements
Relative humidity 54%
Heat index 82°F
Density altitude 1588 ft.
Sea-level pressure 30.01 in.Hg
Remarks
Automated weather observing station with precipitation discriminator.
METAR PHNL 180253Z 05016KT 10SM FEW032 SCT065 27/17 A3001 RMK AO2 SLP163 T02720172 55001

Settings

Location code

InnerDrive.Weather 4.0.5567.0 Release CLR 4.0.30319.34014
Copyright ©2015 Inner Drive Technology. All rights reserved. Portions Copyright ©1986-2015 David Braverman.

Find weather

Site navigation


Skip Navigation Links

Place info

Page info

PayPal - The safer, easier way to pay online!

Return home.

Copyright ©2015 Inner Drive Technology. Purveyors of fine, hand-crafted computer software. Page printed 2015-04-18T03:20:20 UTC.